Decoded Metar for KPQI (PRESQUE ISLE in ME, USA) (IATA:PQI) | Meteo·Mobile Aviation Weather
aviador You're here:

KPQI Decoded Metar

PRESQUE ISLE in ME, USA
Report Time2018-08-22 05:56:00
UTC Time2018-08-22 06:57:28
Flight Rules vfr VFR
Wind200° at 03 kt
W.Decomp.*RWY 19: 2.6 kt HW 1.5 kt RCW
RWY 28: 1.5 kt HW 2.6 kt LCW
W.Rank200° ranks 18
Current wind is below 200° avg. (6.6)
Visibility9999 m
Phenomena:N/A
Clouds:Overcast 060 Hf
Expected CloudBase > 400 ft AGL from Temp-Dew spread
Ceiling6,000 ft
Temp14°C (ISA -0)
Dew Point13°C (94% RH)
AAT13.9°C
QNH1014 hPa
Density Alt643 ft
Elevation479 ft
Report Wrong Elevation
Raw Report
KPQI 220556Z AUTO 20003KT 10SM OVC060 14/13 A2994 RMK AO2 SLP177
T01390128 10183 20139 58019=

Extra information for KPQI:More info

Metar Taf Metar & Taf Last 4 Metars F.Rules Stats Wind Profile Meteogram Temp Stats Airport Information Weather charts Add Link Nearby VenuesMetar ALERT Operation Metar Decoded Social comments

AIRNAV info for KPQI